Danmarkshavn

KL  EN  DA
ASIAQ
Weather Now GREENLAND SURVEY
Updated [WGT/WGST] Temperature [°C] Wind [m/s] Air pressure [hPa] Relative humidity [%] Precipitation [mm]
Present Wind chill Speed Max
18.10 23:00-11,1-15,92,3 ⇘3,2101165n/a
18.10 22:00-11,6-17,22,8 ⇘4,0101264n/a
18.10 21:00-12,80,00,0 ⇓2,7101375n/a
18.10 20:00-12,9-18,12,4 ⇓2,9101371n/a
18.10 19:00-11,50,01,3 ⇓3,3101463n/a
18.10 18:00-12,3-16,61,9 ⇘3,3101462n/a
18.10 17:00-11,8-17,12,6 ⇘4,1101457n/a
18.10 16:00-12,0-18,03,1 ⇘4,0101558n/a
18.10 15:00-11,8-17,02,5 ⇘4,9101555n/a
18.10 14:00-11,3-17,33,2 ⇘4,1101555n/a
18.10 13:00-11,2-16,32,5 ⇒4,4101658n/a
18.10 12:00-9,90,00,7 ⇒5,5101645n/a
18.10 11:00-8,9-15,84,7 ⇘9,7101641n/a
18.10 10:00-9,8-19,18,1 ⇘10,2101647n/a
18.10 09:00-8,8-16,45,7 ⇘11,0101641n/a
18.10 08:00-9,1-18,79,2 ⇘11,0101642n/a
18.10 07:00-9,8-14,22,2 ⇘9,1101645n/a
18.10 06:00-9,0-18,69,2 ⇘12,3101642n/a
18.10 05:00-8,4-18,210,2 ⇘13,7101639n/a
18.10 04:00-9,5-17,96,7 ⇘11,2101647n/a
18.10 03:00-9,6-18,88,0 ⇘10,5101648n/a
18.10 02:00-10,2-19,27,3 ⇘12,3101648n/a
18.10 01:00-9,6-19,810,2 ⇘16,9101545n/a
18.10 00:00-10,1-22,415,5 ⇘19,3101550n/a
17.10 23:00-9,3-19,610,7 ⇘14,9101547n/a
Position: (76.76944444444,-18.66805555)

[Back]